Time;durP1;ratioP1;P1;durP2;ratioP2;P2;SDS_P1;SDS_P2;PMS_P1;PMS_P2;Temp;Humidity;BMP_temperature;BMP_pressure;BME280_temperature;BME280_humidity;BME280_pressure;Samples;Min_cycle;Max_cycle;Signal;HPM_P1;HPM_P2
2024/01/21 00:00:13;;;;;;;;;24.75;20.25;;;;;0.54;63.71;102247.28;5022340;28;11571;-64
2024/01/21 00:02:40;;;;;;;;;29.00;20.25;;;;;0.60;63.15;102244.25;5028352;28;11577;-69
2024/01/21 00:05:07;;;;;;;;;16.75;16.25;;;;;0.66;62.99;102235.91;5028914;28;12297;-69
2024/01/21 00:07:34;;;;;;;;;24.50;24.50;;;;;0.68;62.84;102228.72;5029865;28;11581;-67
2024/01/21 00:10:01;;;;;;;;;20.00;20.00;;;;;0.75;62.77;102222.09;5030647;28;11564;-68
2024/01/21 00:12:27;;;;;;;;;20.25;16.75;;;;;0.74;62.63;102223.03;5019989;28;11638;-67
2024/01/21 00:14:54;;;;;;;;;22.75;21.75;;;;;0.68;62.47;102216.31;5012526;28;11565;-68
2024/01/21 00:17:21;;;;;;;;;22.50;19.50;;;;;0.70;62.20;102217.09;5015302;28;11585;-66
2024/01/21 00:19:47;;;;;;;;;23.00;19.00;;;;;0.68;62.11;102218.97;5027970;28;12301;-67
2024/01/21 00:22:14;;;;;;;;;22.00;21.75;;;;;0.59;61.78;102203.66;5025582;28;11566;-67
2024/01/21 00:24:41;;;;;;;;;21.25;18.25;;;;;0.57;61.52;102194.09;5027761;28;11567;-66
2024/01/21 00:27:08;;;;;;;;;20.00;18.25;;;;;0.61;61.58;102198.25;5028524;28;11589;-67
2024/01/21 00:29:34;;;;;;;;;22.50;19.75;;;;;0.58;61.53;102177.25;5030904;28;12222;-66
2024/01/21 00:32:01;;;;;;;;;19.25;16.75;;;;;0.52;61.07;102174.97;5028341;28;11618;-67
2024/01/21 00:34:27;;;;;;;;;26.75;22.50;;;;;0.58;61.16;102179.91;5024557;28;11571;-67
2024/01/21 00:36:55;;;;;;;;;19.00;13.25;;;;;0.63;61.08;102172.50;5022409;28;11606;-66
2024/01/21 00:39:22;;;;;;;;;23.50;16.75;;;;;0.68;61.31;102150.06;5028265;28;11554;-67
2024/01/21 00:41:49;;;;;;;;;25.25;18.50;;;;;0.66;60.83;102140.53;5030005;28;12301;-69
2024/01/21 00:44:30;;;;;;;;;24.75;17.25;;;;;0.75;61.06;102137.28;5027318;28;11563;-66
2024/01/21 00:46:56;;;;;;;;;16.75;15.00;;;;;0.75;60.95;102126.69;5026515;28;11574;-67
2024/01/21 00:49:23;;;;;;;;;22.00;16.25;;;;;0.65;60.11;102130.84;5028245;28;11778;-67
2024/01/21 00:51:50;;;;;;;;;17.50;16.25;;;;;0.58;60.12;102117.16;5026166;28;11679;-70
2024/01/21 00:54:16;;;;;;;;;13.00;13.00;;;;;0.54;59.75;102117.47;5027900;28;11575;-69
2024/01/21 00:56:43;;;;;;;;;16.75;16.75;;;;;0.55;59.56;102116.50;5026055;28;12247;-67
2024/01/21 00:59:09;;;;;;;;;17.75;14.00;;;;;0.63;59.64;102107.13;5020140;28;11538;-66
2024/01/21 01:01:38;;;;;;;;;20.25;15.75;;;;;0.70;59.75;102102.28;5011607;28;12402;-67
2024/01/21 01:04:05;;;;;;;;;27.50;20.75;;;;;0.62;59.43;102100.13;5030825;28;11584;-67
2024/01/21 01:06:33;;;;;;;;;22.50;19.00;;;;;0.55;59.57;102087.38;5023696;28;11587;-64
2024/01/21 01:08:59;;;;;;;;;15.75;14.00;;;;;0.54;59.24;102096.28;5029373;28;11555;-66
2024/01/21 01:11:27;;;;;;;;;19.50;17.50;;;;;0.54;58.55;102077.72;5026751;28;11607;-65
2024/01/21 01:13:54;;;;;;;;;16.00;14.25;;;;;0.58;58.79;102074.78;5026848;28;12245;-64
2024/01/21 01:16:22;;;;;;;;;16.25;13.50;;;;;0.54;58.82;102061.81;5028912;28;11646;-67
2024/01/21 01:18:49;;;;;;;;;15.25;13.75;;;;;0.49;58.40;102062.97;5023755;28;11546;-64
2024/01/21 01:21:16;;;;;;;;;16.00;14.00;;;;;0.55;58.59;102056.41;5024492;28;12320;-66
2024/01/21 01:23:43;;;;;;;;;10.50;10.50;;;;;0.64;59.08;102047.88;5025383;28;11565;-66
2024/01/21 01:26:09;;;;;;;;;14.25;9.50;;;;;0.73;58.91;102051.75;5029370;28;11561;-67
2024/01/21 01:28:36;;;;;;;;;10.25;10.25;;;;;0.65;58.68;102048.72;5026707;28;11652;-67
2024/01/21 01:31:04;;;;;;;;;11.00;10.00;;;;;0.76;58.29;102055.97;5027467;28;11563;-67
2024/01/21 01:33:31;;;;;;;;;13.00;10.50;;;;;0.81;58.49;102048.56;5027658;28;11727;-67
2024/01/21 01:35:58;;;;;;;;;11.00;10.50;;;;;0.81;58.50;102053.84;5026190;28;11529;-66
2024/01/21 01:38:24;;;;;;;;;13.50;10.50;;;;;0.74;58.12;102051.63;5028104;28;11597;-68
2024/01/21 01:40:51;;;;;;;;;11.50;9.50;;;;;0.71;58.14;102046.53;5015900;28;11631;-68
2024/01/21 01:43:18;;;;;;;;;13.00;11.25;;;;;0.62;57.48;102039.19;5028786;28;11588;-68
2024/01/21 01:45:44;;;;;;;;;12.25;10.00;;;;;0.72;57.39;102027.00;5028808;28;11555;-67
2024/01/21 01:48:11;;;;;;;;;9.00;7.00;;;;;0.78;57.76;102030.22;5029720;28;11105;-69
2024/01/21 01:50:38;;;;;;;;;6.50;6.50;;;;;0.78;57.83;102031.06;5026998;28;11558;-68
2024/01/21 01:53:04;;;;;;;;;10.00;7.00;;;;;0.76;58.00;102040.91;5022733;28;11531;-69
2024/01/21 01:55:31;;;;;;;;;13.75;10.00;;;;;0.66;57.86;102026.59;5026792;28;11592;-69
2024/01/21 01:57:58;;;;;;;;;9.00;9.00;;;;;0.71;57.39;102019.16;5025101;28;11519;-69
2024/01/21 02:00:25;;;;;;;;;7.50;7.50;;;;;0.70;56.92;102010.38;5026273;28;11470;-69
2024/01/21 02:02:52;;;;;;;;;7.25;7.25;;;;;0.73;56.79;102004.03;5024352;28;11607;-66
2024/01/21 02:05:18;;;;;;;;;11.50;10.00;;;;;0.84;56.71;102006.78;5027917;28;11568;-68
2024/01/21 02:07:46;;;;;;;;;6.50;6.50;;;;;0.81;56.80;101990.25;5022456;28;11557;-69
2024/01/21 02:10:13;;;;;;;;;13.25;10.50;;;;;0.74;56.00;101990.66;5023732;28;11520;-69
2024/01/21 02:12:43;;;;;;;;;11.00;9.75;;;;;0.73;56.81;101978.38;5024567;28;11561;-69
2024/01/21 02:15:12;;;;;;;;;9.75;8.00;;;;;0.70;55.92;101972.44;5027583;28;12199;-69
2024/01/21 02:17:39;;;;;;;;;8.25;7.00;;;;;0.79;56.22;101965.66;5029303;28;11523;-69
2024/01/21 02:20:07;;;;;;;;;7.00;5.00;;;;;0.76;56.56;101964.06;5029642;28;11489;-69
2024/01/21 02:22:39;;;;;;;;;8.50;7.75;;;;;0.73;56.92;101951.03;5025135;28;11045;-69
2024/01/21 02:25:07;;;;;;;;;7.00;4.25;;;;;0.72;56.38;101930.75;5027675;28;12332;-69
2024/01/21 02:27:34;;;;;;;;;7.25;7.00;;;;;0.81;56.63;101940.75;5026958;28;11513;-67
2024/01/21 02:30:01;;;;;;;;;10.00;6.75;;;;;0.58;56.16;101923.75;5028138;28;11543;-67
2024/01/21 02:32:28;;;;;;;;;10.00;10.00;;;;;0.57;55.80;101929.13;5028469;28;11552;-65
2024/01/21 02:34:54;;;;;;;;;8.25;7.75;;;;;0.67;55.94;101916.97;5029033;28;11565;-63
2024/01/21 02:37:21;;;;;;;;;14.00;10.25;;;;;0.61;56.28;101931.50;5011204;28;11573;-68
2024/01/21 02:39:48;;;;;;;;;6.75;6.75;;;;;0.59;56.44;101921.94;5008617;28;11707;-64
2024/01/21 02:42:15;;;;;;;;;7.50;7.50;;;;;0.61;56.41;101917.38;5010788;28;11578;-67
2024/01/21 02:44:42;;;;;;;;;9.50;9.50;;;;;0.54;56.44;101918.78;5006040;28;11521;-67
2024/01/21 02:47:08;;;;;;;;;7.25;6.00;;;;;0.53;56.47;101919.69;5017702;28;11502;-69
2024/01/21 02:49:35;;;;;;;;;4.25;2.50;;;;;0.58;56.32;101914.97;5016923;28;11510;-66
2024/01/21 02:52:02;;;;;;;;;7.00;7.00;;;;;0.57;56.52;101907.94;5019264;28;11553;-67
2024/01/21 02:54:28;;;;;;;;;8.00;8.00;;;;;0.57;56.55;101900.88;5021872;28;11501;-66
2024/01/21 02:56:55;;;;;;;;;8.25;7.25;;;;;0.45;56.58;101896.41;5029359;28;11521;-69
2024/01/21 02:59:22;;;;;;;;;1.75;1.75;;;;;0.56;56.19;101887.72;5029143;28;11486;-69
2024/01/21 03:01:48;;;;;;;;;10.75;7.50;;;;;0.61;56.38;101886.47;5027251;28;11501;-70
2024/01/21 03:04:15;;;;;;;;;6.75;6.75;;;;;0.66;56.67;101886.16;5021509;28;11522;-66
2024/01/21 03:06:42;;;;;;;;;10.25;8.25;;;;;0.54;56.46;101897.56;5012593;28;11518;-64
2024/01/21 03:09:09;;;;;;;;;8.00;7.25;;;;;0.60;56.50;101881.25;5009664;28;11555;-67
2024/01/21 03:11:39;;;;;;;;;7.00;7.00;;;;;0.62;56.64;101877.56;5010221;28;11649;-64
2024/01/21 03:14:07;;;;;;;;;9.00;9.00;;;;;0.69;56.95;101878.84;5029006;28;11516;-66
2024/01/21 03:16:34;;;;;;;;;8.00;8.00;;;;;0.66;57.01;101871.09;5029039;28;11537;-66
2024/01/21 03:19:00;;;;;;;;;13.75;10.50;;;;;0.70;56.98;101864.63;5027078;28;11618;-65
2024/01/21 03:21:27;;;;;;;;;7.50;7.00;;;;;0.81;57.07;101868.31;5024667;28;11558;-69
2024/01/21 03:23:54;;;;;;;;;12.75;7.50;;;;;0.76;57.10;101866.00;5019422;28;11513;-66
2024/01/21 03:26:21;;;;;;;;;8.00;8.00;;;;;0.76;57.32;101866.00;5024806;28;11542;-68
2024/01/21 03:28:47;;;;;;;;;9.25;9.25;;;;;0.71;57.18;101866.31;5026651;28;10957;-65
2024/01/21 03:31:14;;;;;;;;;9.00;7.50;;;;;0.67;57.60;101853.38;5025889;28;11573;-63
2024/01/21 03:33:40;;;;;;;;;13.75;8.50;;;;;0.70;57.43;101846.09;5024576;28;12155;-65
2024/01/21 03:36:07;;;;;;;;;9.00;7.50;;;;;0.64;57.54;101851.78;5039805;23;11560;-68
2024/01/21 03:38:33;;;;;;;;;10.00;8.00;;;;;0.56;57.57;101845.31;5040074;28;11519;-67
2024/01/21 03:41:00;;;;;;;;;10.00;7.75;;;;;0.59;57.48;101847.78;5035364;28;11570;-67
2024/01/21 03:43:27;;;;;;;;;5.50;5.50;;;;;0.56;57.20;101822.31;5045410;28;11611;-66
2024/01/21 03:45:53;;;;;;;;;7.25;7.25;;;;;0.59;57.46;101815.97;5049303;28;11472;-65
2024/01/21 03:48:20;;;;;;;;;15.75;11.50;;;;;0.66;58.01;101817.25;5049557;28;11597;-66
2024/01/21 03:50:47;;;;;;;;;10.25;7.75;;;;;0.53;57.99;101811.09;5045144;28;11665;-65
2024/01/21 03:53:13;;;;;;;;;10.00;8.00;;;;;0.54;58.06;101804.84;5045908;28;11489;-64
2024/01/21 03:55:40;;;;;;;;;11.25;8.25;;;;;0.50;58.72;101806.88;5050778;28;11538;-65
2024/01/21 03:58:06;;;;;;;;;6.25;5.50;;;;;0.55;58.23;101793.28;5048783;28;11652;-65
2024/01/21 04:00:33;;;;;;;;;7.50;7.00;;;;;0.63;58.26;101796.25;5051237;28;11503;-64
2024/01/21 04:02:59;;;;;;;;;10.75;8.00;;;;;0.63;58.51;101799.75;5042414;28;11460;-64
2024/01/21 04:05:26;;;;;;;;;10.75;8.50;;;;;0.63;58.85;101777.72;5050178;28;11513;-64
2024/01/21 04:07:53;;;;;;;;;13.25;10.25;;;;;0.58;58.90;101793.09;5042990;28;11532;-65
2024/01/21 04:10:19;;;;;;;;;17.00;10.75;;;;;0.64;58.75;101784.69;5052174;28;11493;-64
2024/01/21 04:12:46;;;;;;;;;12.00;6.75;;;;;0.63;58.99;101761.81;5047672;28;11554;-65
2024/01/21 04:15:12;;;;;;;;;7.25;7.25;;;;;0.60;59.18;101762.03;5031527;28;11506;-65
2024/01/21 04:17:39;;;;;;;;;10.00;7.00;;;;;0.62;58.81;101741.59;5032888;28;11550;-65
2024/01/21 04:20:08;;;;;;;;;8.25;7.50;;;;;0.64;58.93;101740.50;5032772;28;12203;-65
2024/01/21 04:22:35;;;;;;;;;10.75;10.50;;;;;0.72;58.97;101759.34;5047472;28;11474;-65
2024/01/21 04:25:02;;;;;;;;;10.75;8.50;;;;;0.88;59.16;101752.97;5049438;28;11595;-65
2024/01/21 04:27:28;;;;;;;;;5.50;5.00;;;;;0.92;59.15;101749.16;5040000;28;12056;-65
2024/01/21 04:29:55;;;;;;;;;5.50;5.50;;;;;0.88;58.88;101750.34;5049625;28;11463;-65
2024/01/21 04:32:21;;;;;;;;;8.75;8.75;;;;;0.90;59.66;101751.94;5047503;28;11462;-64
2024/01/21 04:34:49;;;;;;;;;11.00;10.00;;;;;0.82;59.47;101738.38;5050165;28;12192;-65
2024/01/21 04:37:15;;;;;;;;;10.75;7.50;;;;;0.86;59.87;101733.72;5050773;28;11575;-65
2024/01/21 04:39:42;;;;;;;;;11.00;9.50;;;;;0.78;59.60;101734.25;5039187;28;11537;-63
2024/01/21 04:42:08;;;;;;;;;12.50;9.75;;;;;0.69;59.93;101745.50;5042320;28;11502;-63
2024/01/21 04:44:35;;;;;;;;;15.50;10.50;;;;;0.69;59.82;101740.22;5049525;28;11639;-66
2024/01/21 04:47:02;;;;;;;;;16.00;10.00;;;;;0.73;60.00;101744.34;5049672;28;11000;-64
2024/01/21 04:49:28;;;;;;;;;7.75;7.75;;;;;0.78;59.82;101742.19;5049853;28;11555;-65
2024/01/21 04:51:55;;;;;;;;;14.50;10.75;;;;;0.89;59.50;101739.63;5041936;28;11502;-64
2024/01/21 04:54:21;;;;;;;;;16.00;11.75;;;;;0.79;59.94;101725.34;5051286;28;11498;-66
2024/01/21 04:56:48;;;;;;;;;12.50;8.00;;;;;0.73;59.74;101729.28;5051893;28;11592;-64
2024/01/21 04:59:15;;;;;;;;;13.00;11.00;;;;;0.66;60.31;101724.50;5048246;28;11497;-64
2024/01/21 05:01:42;;;;;;;;;12.25;4.50;;;;;0.58;60.08;101701.22;5039037;28;11493;-64
2024/01/21 05:04:09;;;;;;;;;13.75;13.00;;;;;0.56;60.90;101705.75;5050645;28;11504;-64
2024/01/21 05:06:35;;;;;;;;;5.50;5.50;;;;;0.71;60.54;101696.72;5046451;28;12693;-66
2024/01/21 05:09:02;;;;;;;;;12.75;10.25;;;;;0.71;60.42;101712.63;5047621;28;11492;-65
2024/01/21 05:11:29;;;;;;;;;10.00;9.50;;;;;0.81;60.47;101675.72;5040048;28;11537;-64
2024/01/21 05:13:56;;;;;;;;;15.50;12.25;;;;;0.58;60.64;101695.06;5043073;28;11523;-64
2024/01/21 05:16:23;;;;;;;;;7.00;7.00;;;;;0.53;60.89;101694.53;5050919;28;11728;-64
2024/01/21 05:18:49;;;;;;;;;10.00;10.00;;;;;0.57;61.36;101646.53;5050686;28;12268;-64
2024/01/21 05:21:20;;;;;;;;;7.50;7.50;;;;;0.61;61.06;101632.13;5033184;28;11520;-66
2024/01/21 05:23:51;;;;;;;;;6.00;6.00;;;;;0.64;61.24;101634.53;5049924;28;11580;-64
2024/01/21 05:26:17;;;;;;;;;12.75;11.25;;;;;0.67;61.41;101628.16;5049592;28;11537;-64
2024/01/21 05:28:47;;;;;;;;;11.00;11.00;;;;;0.63;61.78;101611.66;5050210;28;12276;-64
2024/01/21 05:31:14;;;;;;;;;11.00;11.00;;;;;0.57;61.89;101622.69;5039869;28;11516;-64
2024/01/21 05:33:40;;;;;;;;;9.50;9.50;;;;;0.57;62.11;101640.38;5047325;28;12402;-65
2024/01/21 05:36:09;;;;;;;;;7.50;7.50;;;;;0.64;61.62;101615.97;5047680;28;11492;-66
2024/01/21 05:38:36;;;;;;;;;10.75;10.75;;;;;0.72;61.74;101624.22;5042240;28;11565;-65
2024/01/21 05:41:03;;;;;;;;;13.75;11.50;;;;;0.77;62.01;101618.59;5049666;28;11520;-64
2024/01/21 05:43:29;;;;;;;;;11.75;11.75;;;;;0.78;61.86;101640.66;5049365;28;11536;-66
2024/01/21 05:45:56;;;;;;;;;14.50;10.25;;;;;0.86;61.77;101639.13;5049644;28;11562;-64
2024/01/21 05:48:23;;;;;;;;;14.25;10.75;;;;;0.84;62.11;101646.34;5051051;28;12287;-66
2024/01/21 05:50:50;;;;;;;;;12.00;10.00;;;;;0.81;62.35;101654.53;5036740;28;12341;-65
2024/01/21 05:53:17;;;;;;;;;12.50;10.25;;;;;0.69;62.10;101663.38;5042465;28;11503;-64
2024/01/21 05:55:45;;;;;;;;;12.25;11.25;;;;;0.88;61.92;101646.97;5048305;28;11019;-66
2024/01/21 05:58:12;;;;;;;;;11.25;9.50;;;;;0.89;61.67;101644.22;5050686;28;11575;-64
2024/01/21 06:00:39;;;;;;;;;8.00;7.00;;;;;0.98;61.77;101643.53;5039072;28;11569;-67
2024/01/21 06:03:06;;;;;;;;;11.50;10.75;;;;;0.82;61.77;101624.41;5048508;28;11626;-68
2024/01/21 06:05:32;;;;;;;;;11.00;8.25;;;;;0.89;61.52;101654.81;5043882;28;11535;-68
2024/01/21 06:07:59;;;;;;;;;14.25;12.75;;;;;0.96;61.25;101671.94;5041236;28;11523;-68
2024/01/21 06:10:26;;;;;;;;;10.00;6.75;;;;;0.91;61.72;101678.56;5043215;28;11612;-67
2024/01/21 06:12:53;;;;;;;;;19.25;14.25;;;;;0.89;62.04;101670.72;5048419;28;11523;-68
2024/01/21 06:15:19;;;;;;;;;15.00;13.75;;;;;0.80;61.62;101654.63;5048001;28;11515;-67
2024/01/21 06:17:46;;;;;;;;;14.50;11.25;;;;;0.96;61.71;101653.38;5036232;28;11535;-65
2024/01/21 06:20:12;;;;;;;;;12.50;11.50;;;;;0.90;62.36;101655.66;5042653;28;11522;-68
2024/01/21 06:22:39;;;;;;;;;14.00;9.50;;;;;0.97;61.89;101673.66;5044479;28;11619;-68
2024/01/21 06:25:06;;;;;;;;;16.00;13.00;;;;;0.98;61.63;101664.75;5048292;28;11574;-68
2024/01/21 06:27:32;;;;;;;;;11.00;11.00;;;;;0.97;62.03;101654.22;5048843;28;11538;-67
2024/01/21 06:30:13;;;;;;;;;15.75;13.75;;;;;1.07;62.20;101663.22;5047399;28;11462;-68
2024/01/21 06:32:40;;;;;;;;;10.25;10.00;;;;;1.09;61.82;101671.91;5047734;28;11534;-66
2024/01/21 06:35:22;;;;;;;;;16.00;15.25;;;;;1.04;61.84;101636.09;5042160;28;11502;-68
2024/01/21 06:37:49;;;;;;;;;13.25;11.00;;;;;1.08;61.97;101646.34;5039033;28;12421;-68
2024/01/21 06:40:16;;;;;;;;;14.00;13.25;;;;;1.19;61.97;101654.34;5038575;28;11494;-68
2024/01/21 06:42:42;;;;;;;;;10.00;10.00;;;;;1.19;61.84;101640.25;5048680;28;11508;-68
2024/01/21 06:45:11;;;;;;;;;13.75;12.00;;;;;1.17;61.99;101615.66;5046873;28;11499;-66
2024/01/21 06:47:39;;;;;;;;;17.75;13.50;;;;;1.12;62.22;101608.03;5044989;28;11525;-68
2024/01/21 06:50:06;;;;;;;;;11.50;11.50;;;;;1.09;62.24;101602.13;5049403;28;11611;-68
2024/01/21 06:52:32;;;;;;;;;21.75;13.75;;;;;1.10;62.21;101587.91;5046602;28;11546;-68
2024/01/21 06:54:59;;;;;;;;;12.25;12.25;;;;;1.16;62.60;101568.88;5047684;28;11633;-66
2024/01/21 06:57:25;;;;;;;;;15.50;12.50;;;;;1.25;62.34;101554.91;5044262;28;11522;-68
2024/01/21 06:59:52;;;;;;;;;15.00;10.50;;;;;1.22;62.78;101563.97;5049145;28;11074;-68
2024/01/21 07:02:19;;;;;;;;;15.75;14.00;;;;;1.21;62.78;101548.16;5043479;28;11642;-68
2024/01/21 07:04:45;;;;;;;;;13.50;13.25;;;;;1.10;62.54;101540.19;5030127;28;11507;-67
2024/01/21 07:07:12;;;;;;;;;13.25;10.75;;;;;1.16;62.55;101558.28;5042304;28;12294;-67
2024/01/21 07:09:41;;;;;;;;;13.50;12.75;;;;;1.19;62.87;101584.56;5050249;28;11470;-68
2024/01/21 07:12:08;;;;;;;;;17.25;13.75;;;;;1.19;62.94;101605.78;5046853;28;11563;-68
2024/01/21 07:14:35;;;;;;;;;16.75;14.50;;;;;1.12;62.81;101620.47;5043041;28;11609;-68
2024/01/21 07:17:03;;;;;;;;;14.50;13.00;;;;;1.19;62.71;101634.97;5050116;28;12251;-69
2024/01/21 07:19:30;;;;;;;;;16.50;12.75;;;;;1.18;62.75;101638.56;5048091;28;11626;-67
2024/01/21 07:21:57;;;;;;;;;10.00;8.00;;;;;1.12;62.33;101613.34;5043286;28;11676;-69
2024/01/21 07:24:24;;;;;;;;;18.00;14.75;;;;;0.98;63.02;101638.22;5044562;28;11593;-68
2024/01/21 07:26:50;;;;;;;;;20.25;18.00;;;;;0.98;62.65;101646.19;5049109;28;11556;-68
2024/01/21 07:29:17;;;;;;;;;14.75;14.00;;;;;1.11;62.91;101658.53;5052165;28;11567;-68
2024/01/21 07:31:43;;;;;;;;;15.75;13.00;;;;;1.24;62.47;101646.06;5046678;28;11663;-68
2024/01/21 07:34:10;;;;;;;;;18.75;11.25;;;;;1.28;62.36;101647.53;5051480;28;11541;-66
2024/01/21 07:36:37;;;;;;;;;21.75;14.75;;;;;1.27;63.02;101639.69;5050428;28;11574;-68
2024/01/21 07:39:07;;;;;;;;;20.00;16.50;;;;;1.24;62.53;101656.66;5045375;28;11576;-68
2024/01/21 07:41:34;;;;;;;;;18.75;13.00;;;;;1.28;62.62;101657.28;5043070;28;12371;-68
2024/01/21 07:44:00;;;;;;;;;15.00;13.50;;;;;1.36;62.74;101653.09;5046586;28;12273;-66
2024/01/21 07:46:27;;;;;;;;;18.75;15.25;;;;;1.34;61.99;101663.00;5045347;28;11561;-67
2024/01/21 07:48:53;;;;;;;;;17.50;16.50;;;;;1.34;62.77;101652.38;5042078;28;11616;-67
2024/01/21 07:51:20;;;;;;;;;16.50;13.75;;;;;1.41;62.62;101634.19;5048843;28;11555;-67
2024/01/21 07:53:47;;;;;;;;;14.00;13.50;;;;;1.44;62.41;101636.63;5040205;28;11541;-67
2024/01/21 07:56:13;;;;;;;;;16.50;14.00;;;;;1.30;62.77;101621.75;5047519;28;11601;-67
2024/01/21 07:58:40;;;;;;;;;16.75;12.75;;;;;1.24;63.18;101640.75;5052801;28;11538;-67
2024/01/21 08:01:11;;;;;;;;;11.75;11.75;;;;;1.41;62.91;101644.78;5047056;28;11653;-67
2024/01/21 08:03:38;;;;;;;;;14.50;14.00;;;;;1.39;63.03;101641.44;5045532;28;11583;-67
2024/01/21 08:06:07;;;;;;;;;18.75;12.50;;;;;1.39;62.93;101646.72;5053042;28;11146;-65
2024/01/21 08:08:34;;;;;;;;;14.75;14.25;;;;;1.36;63.42;101662.88;5053178;28;11588;-67
2024/01/21 08:11:01;;;;;;;;;20.50;16.75;;;;;1.41;63.05;101669.50;5050876;28;11540;-67
2024/01/21 08:13:27;;;;;;;;;13.25;11.50;;;;;1.51;63.24;101651.13;5047419;28;11541;-66
2024/01/21 08:15:55;;;;;;;;;17.00;16.50;;;;;1.55;63.30;101657.03;5041779;28;11523;-66
2024/01/21 08:18:23;;;;;;;;;9.75;9.75;;;;;1.51;63.79;101661.72;5045818;28;11519;-67
2024/01/21 08:20:51;;;;;;;;;16.25;12.75;;;;;1.48;63.80;101654.84;5051630;28;11523;-67
2024/01/21 08:23:18;;;;;;;;;15.25;11.00;;;;;1.50;63.98;101673.31;5038958;28;11631;-65
2024/01/21 08:25:44;;;;;;;;;16.50;14.50;;;;;1.55;64.39;101673.81;5044054;28;11650;-66
2024/01/21 08:28:12;;;;;;;;;15.50;15.50;;;;;1.60;64.62;101689.38;5027748;28;11553;-67
2024/01/21 08:30:39;;;;;;;;;15.25;15.25;;;;;1.49;64.73;101683.06;5038602;28;11544;-67
2024/01/21 08:33:06;;;;;;;;;17.00;15.25;;;;;1.56;64.97;101682.59;5040866;28;11556;-67
2024/01/21 08:35:33;;;;;;;;;11.00;10.25;;;;;1.59;65.12;101680.56;5045929;28;11541;-67
2024/01/21 08:38:00;;;;;;;;;16.00;14.50;;;;;1.60;65.10;101676.09;5052216;28;11508;-67
2024/01/21 08:40:26;;;;;;;;;22.75;18.50;;;;;1.45;65.99;101681.59;5052163;28;11559;-67
2024/01/21 08:42:53;;;;;;;;;14.00;13.00;;;;;1.58;65.92;101684.19;5050946;28;11591;-67
2024/01/21 08:45:19;;;;;;;;;17.75;13.50;;;;;1.67;65.73;101696.75;5037171;28;11604;-66
2024/01/21 08:47:46;;;;;;;;;14.00;13.25;;;;;1.63;65.90;101695.31;5043899;28;11604;-67
2024/01/21 08:50:13;;;;;;;;;12.50;12.50;;;;;1.56;66.96;101690.56;5041017;28;11515;-67
2024/01/21 08:52:39;;;;;;;;;15.00;13.75;;;;;1.60;66.95;101707.94;5030391;28;11629;-67
2024/01/21 08:55:06;;;;;;;;;18.00;14.00;;;;;1.59;66.98;101693.00;5030776;28;11657;-67
2024/01/21 08:57:33;;;;;;;;;13.25;12.50;;;;;1.62;67.49;101692.75;5042528;28;11553;-66
2024/01/21 08:59:59;;;;;;;;;19.50;15.25;;;;;1.60;68.10;101692.88;5048597;28;11509;-67
2024/01/21 09:02:26;;;;;;;;;12.75;11.00;;;;;1.72;68.05;101665.41;5043998;28;11629;-67
2024/01/21 09:04:53;;;;;;;;;14.75;11.50;;;;;1.73;68.40;101671.56;5043183;28;11522;-66
2024/01/21 09:07:20;;;;;;;;;17.75;16.50;;;;;1.67;68.75;101661.41;5044383;28;12222;-67
2024/01/21 09:09:46;;;;;;;;;18.75;14.75;;;;;1.66;69.33;101665.00;5047011;28;11625;-66
2024/01/21 09:12:15;;;;;;;;;21.25;16.50;;;;;1.68;69.84;101658.63;5046662;28;11590;-66
2024/01/21 09:14:42;;;;;;;;;17.50;15.50;;;;;1.79;69.68;101649.03;5051589;28;11560;-67
2024/01/21 09:17:09;;;;;;;;;15.75;13.75;;;;;1.85;69.53;101645.88;5051507;28;11527;-67
2024/01/21 09:19:36;;;;;;;;;18.50;14.75;;;;;1.82;70.46;101662.88;5050521;28;11648;-66
2024/01/21 09:22:04;;;;;;;;;16.75;14.75;;;;;1.85;70.53;101667.97;5051516;28;11531;-67
2024/01/21 09:24:31;;;;;;;;;17.50;14.50;;;;;1.94;70.54;101677.88;5039939;28;11556;-66
2024/01/21 09:26:57;;;;;;;;;17.00;14.50;;;;;1.97;70.75;101677.66;5039874;28;11553;-65
2024/01/21 09:29:24;;;;;;;;;16.25;15.25;;;;;1.98;71.40;101682.00;5047332;28;11582;-66
2024/01/21 09:31:57;;;;;;;;;15.75;13.75;;;;;2.01;71.42;101680.91;5043072;28;11648;-67
2024/01/21 09:34:24;;;;;;;;;20.25;16.00;;;;;2.12;71.21;101690.72;5051020;28;11637;-67
2024/01/21 09:36:52;;;;;;;;;12.50;12.50;;;;;2.10;72.08;101682.00;5072341;23;11694;-70
2024/01/21 09:39:20;;;;;;;;;15.00;12.00;;;;;2.26;72.03;101679.84;5048779;28;11505;-69
2024/01/21 09:41:51;;;;;;;;;18.50;13.25;;;;;2.23;71.95;101670.34;5048613;28;11671;-69
2024/01/21 09:44:19;;;;;;;;;15.75;15.25;;;;;2.33;72.47;101670.44;5064007;28;11545;-70
2024/01/21 09:46:53;;;;;;;;;25.50;21.25;;;;;2.35;72.14;101662.34;5050805;28;11541;-70
2024/01/21 09:49:20;;;;;;;;;15.00;13.75;;;;;2.39;72.48;101656.69;5049851;28;12337;-70
2024/01/21 09:51:52;;;;;;;;;14.75;14.25;;;;;2.39;72.81;101690.38;5044909;28;11560;-68
2024/01/21 09:54:20;;;;;;;;;15.50;13.25;;;;;2.42;72.87;101690.13;5037952;28;11550;-69
2024/01/21 09:56:48;;;;;;;;;14.75;14.25;;;;;2.39;73.09;101701.88;5046294;28;11599;-70
2024/01/21 09:59:15;;;;;;;;;13.75;12.00;;;;;2.48;72.86;101685.19;5049959;28;11622;-70
2024/01/21 10:01:43;;;;;;;;;17.25;16.25;;;;;2.43;73.37;101691.81;5049658;28;11562;-70
2024/01/21 10:04:11;;;;;;;;;15.00;14.00;;;;;2.45;74.12;101673.94;5034072;28;11542;-70
2024/01/21 10:06:38;;;;;;;;;17.50;15.50;;;;;2.44;74.61;101682.91;5049856;28;11537;-70
2024/01/21 10:09:22;;;;;;;;;17.25;12.25;;;;;2.52;74.89;101692.94;5051223;28;11600;-70
2024/01/21 10:11:53;;;;;;;;;13.00;11.75;;;;;2.54;74.31;101688.31;5041163;28;11546;-70
2024/01/21 10:14:20;;;;;;;;;23.00;13.50;;;;;2.50;75.03;101689.53;5045257;28;11558;-69
2024/01/21 10:16:47;;;;;;;;;17.00;16.75;;;;;2.61;75.21;101697.50;5051120;28;11606;-70
2024/01/21 10:19:14;;;;;;;;;18.50;15.75;;;;;2.62;75.52;101689.41;5040635;28;11505;-69
2024/01/21 10:21:42;;;;;;;;;21.25;19.50;;;;;2.62;75.58;101688.56;5047237;28;11620;-68
2024/01/21 10:24:10;;;;;;;;;18.50;14.25;;;;;2.65;76.41;101693.63;5044046;28;12363;-69
2024/01/21 10:26:37;;;;;;;;;22.00;20.25;;;;;2.80;77.17;101680.94;5043001;28;11628;-70
2024/01/21 10:29:04;;;;;;;;;19.50;17.50;;;;;2.66;77.78;101664.25;5037407;28;11566;-70
2024/01/21 10:31:33;;;;;;;;;15.00;15.00;;;;;2.65;78.14;101661.75;5029906;28;11548;-68
2024/01/21 10:34:02;;;;;;;;;21.50;19.25;;;;;2.65;78.32;101659.09;5034104;28;11598;-68
2024/01/21 10:36:33;;;;;;;;;17.50;15.00;;;;;2.61;78.32;101661.13;5042353;28;11671;-67
2024/01/21 10:39:03;;;;;;;;;19.25;15.00;;;;;2.62;79.21;101648.69;5037168;28;11528;-68
2024/01/21 10:41:31;;;;;;;;;17.25;14.50;;;;;2.58;80.29;101669.34;5040738;28;12515;-65
2024/01/21 10:44:01;;;;;;;;;18.00;16.25;;;;;2.56;80.55;101660.66;5049320;28;11542;-66
2024/01/21 10:46:32;;;;;;;;;21.75;18.00;;;;;2.62;81.19;101657.50;5041660;28;11514;-66
2024/01/21 10:48:59;;;;;;;;;18.25;15.75;;;;;2.63;81.84;101658.34;5035910;28;11528;-67
2024/01/21 10:51:27;;;;;;;;;30.50;23.50;;;;;2.67;81.68;101663.31;5045594;28;11613;-67
2024/01/21 10:53:56;;;;;;;;;15.75;15.75;;;;;2.74;81.77;101663.66;5037110;28;11548;-65
2024/01/21 10:56:26;;;;;;;;;19.00;17.00;;;;;2.75;81.76;101665.34;5046135;28;12334;-66
2024/01/21 10:58:54;;;;;;;;;17.50;17.50;;;;;2.72;82.22;101654.97;5045636;28;11571;-66
2024/01/21 11:01:23;;;;;;;;;17.25;17.25;;;;;2.70;83.22;101652.41;5035436;28;12256;-69
2024/01/21 11:04:02;;;;;;;;;21.25;19.50;;;;;2.68;83.48;101650.88;5036361;28;11549;-70
2024/01/21 11:06:31;;;;;;;;;19.50;19.50;;;;;2.70;83.78;101664.88;5054169;28;11522;-69
2024/01/21 11:09:03;;;;;;;;;20.75;17.00;;;;;2.86;85.74;101673.31;5042266;28;11573;-69
2024/01/21 11:11:30;;;;;;;;;18.75;17.50;;;;;2.89;84.51;101658.94;5052104;28;11655;-70
2024/01/21 11:13:56;;;;;;;;;19.25;17.50;;;;;2.96;83.91;101662.78;5056354;28;11646;-69
2024/01/21 11:16:26;;;;;;;;;24.50;20.75;;;;;2.90;83.84;101660.59;5056759;28;11602;-68
2024/01/21 11:18:53;;;;;;;;;25.00;20.50;;;;;2.82;84.98;101658.56;5050482;28;11554;-70
2024/01/21 11:21:21;;;;;;;;;16.75;16.50;;;;;2.81;84.95;101661.34;5047510;28;12239;-69